createdAt,value
2018-02-13T00:00:40.224Z,9.93
2018-02-13T00:03:09.221Z,10.10
2018-02-13T00:05:37.443Z,10.40
2018-02-13T00:08:05.771Z,9.50
2018-02-13T00:10:34.056Z,9.17
2018-02-13T00:13:02.324Z,8.83
2018-02-13T00:15:30.551Z,9.10
2018-02-13T00:17:58.811Z,11.50
2018-02-13T00:20:27.044Z,11.63
2018-02-13T00:23:01.123Z,11.77
2018-02-13T00:25:29.390Z,9.20
2018-02-13T00:27:57.634Z,10.00
2018-02-13T00:30:25.888Z,8.70
2018-02-13T00:32:54.125Z,9.17
2018-02-13T00:35:22.321Z,8.93
2018-02-13T00:37:51.341Z,9.20
2018-02-13T00:40:19.566Z,8.40
2018-02-13T00:42:47.781Z,9.07
2018-02-13T00:45:16.785Z,9.60
2018-02-13T00:47:45.062Z,9.27
2018-02-13T00:50:13.343Z,12.80
2018-02-13T00:52:41.546Z,9.97
2018-02-13T00:55:09.865Z,8.80
2018-02-13T00:57:38.090Z,9.30
2018-02-13T01:00:06.334Z,9.97
2018-02-13T01:02:34.557Z,10.43
2018-02-13T01:05:02.789Z,10.30
2018-02-13T01:07:31.029Z,9.90
2018-02-13T01:09:59.240Z,7.77
2018-02-13T01:12:27.533Z,10.60
2018-02-13T01:14:55.792Z,11.30
2018-02-13T01:17:24.059Z,8.97
2018-02-13T01:19:53.042Z,8.20
2018-02-13T01:22:22.024Z,8.73
2018-02-13T01:24:50.268Z,10.43
2018-02-13T01:27:18.513Z,11.97
2018-02-13T01:29:46.768Z,10.60
2018-02-13T01:32:15.826Z,9.70
2018-02-13T01:34:44.115Z,10.70
2018-02-13T01:37:12.360Z,11.60
2018-02-13T01:39:40.621Z,11.23
2018-02-13T01:42:08.840Z,7.57
2018-02-13T01:44:37.161Z,9.23
2018-02-13T01:47:05.399Z,13.30
2018-02-13T01:49:33.602Z,9.27
2018-02-13T01:52:02.607Z,8.83
2018-02-13T01:54:30.850Z,10.37
2018-02-13T01:56:59.163Z,10.63
2018-02-13T01:59:27.402Z,11.10
2018-02-13T02:01:55.621Z,12.17
2018-02-13T02:04:23.883Z,10.17
2018-02-13T02:06:52.092Z,9.30
2018-02-13T02:09:20.387Z,8.90
2018-02-13T02:11:48.625Z,10.70
2018-02-13T02:14:16.870Z,9.20
2018-02-13T02:16:45.873Z,13.77
2018-02-13T02:19:14.901Z,11.30
2018-02-13T02:21:43.119Z,12.83
2018-02-13T02:24:11.429Z,11.40
2018-02-13T02:26:39.692Z,9.13
2018-02-13T02:29:08.798Z,11.30
2018-02-13T02:31:37.088Z,14.00
2018-02-13T02:34:05.344Z,12.87
2018-02-13T02:36:34.350Z,8.27
2018-02-13T02:39:02.552Z,16.77
2018-02-13T02:41:30.783Z,10.00
2018-02-13T02:43:59.788Z,9.67
2018-02-13T02:46:28.082Z,12.47
2018-02-13T02:48:56.346Z,12.87
2018-02-13T02:51:24.625Z,10.07
2018-02-13T02:53:52.907Z,12.33
2018-02-13T02:56:21.176Z,9.17
2018-02-13T02:58:50.149Z,11.53
2018-02-13T03:01:19.152Z,10.30
2018-02-13T03:03:48.263Z,11.33
2018-02-13T03:06:16.512Z,11.57
2018-02-13T03:08:44.742Z,9.47
2018-02-13T03:11:12.969Z,13.03
2018-02-13T03:13:41.989Z,11.47
2018-02-13T03:16:10.258Z,11.90
2018-02-13T03:18:38.540Z,11.67
2018-02-13T03:21:06.775Z,11.30
2018-02-13T03:23:35.099Z,11.00
2018-02-13T03:26:03.394Z,8.37
2018-02-13T03:28:31.632Z,11.47
2018-02-13T03:30:59.853Z,12.03
2018-02-13T03:33:28.112Z,10.33
2018-02-13T03:35:56.364Z,12.53
2018-02-13T03:38:24.591Z,16.10
2018-02-13T03:40:52.810Z,16.03
2018-02-13T03:43:21.100Z,12.37
2018-02-13T03:45:49.382Z,10.73
2018-02-13T03:48:17.592Z,14.53
2018-02-13T03:50:45.845Z,10.23
2018-02-13T03:53:14.102Z,12.23
2018-02-13T03:55:42.383Z,14.77
2018-02-13T03:58:10.659Z,15.10
2018-02-13T04:00:38.911Z,11.87
2018-02-13T04:03:07.899Z,14.50
2018-02-13T04:05:36.204Z,12.50
2018-02-13T04:08:04.444Z,13.27
2018-02-13T04:10:32.764Z,12.53
2018-02-13T04:13:01.050Z,13.40
2018-02-13T04:15:29.264Z,15.33
2018-02-13T04:17:57.582Z,13.70
2018-02-13T04:20:25.883Z,12.00
2018-02-13T04:22:54.102Z,14.73
2018-02-13T04:25:22.364Z,12.43
2018-02-13T04:27:50.595Z,11.93
2018-02-13T04:30:19.035Z,13.53
2018-02-13T04:32:47.409Z,12.20
2018-02-13T04:35:15.655Z,12.60
2018-02-13T04:37:43.890Z,15.10
2018-02-13T04:40:12.883Z,14.80
2018-02-13T04:42:41.990Z,16.80
2018-02-13T04:45:10.205Z,13.70
2018-02-13T04:47:38.457Z,13.17
2018-02-13T04:50:06.667Z,18.87
2018-02-13T04:52:34.901Z,12.80
2018-02-13T04:55:03.209Z,14.17
2018-02-13T04:57:31.432Z,15.57
2018-02-13T05:00:00.400Z,13.40
2018-02-13T05:02:28.638Z,12.97
2018-02-13T05:04:56.908Z,14.43
2018-02-13T05:07:25.169Z,13.33
2018-02-13T05:09:53.409Z,16.93
2018-02-13T05:12:21.721Z,17.70
2018-02-13T05:14:49.928Z,14.67
2018-02-13T05:17:18.316Z,14.27
2018-02-13T05:19:46.598Z,12.97
2018-02-13T05:22:14.756Z,13.90
2018-02-13T05:24:43.100Z,16.90
2018-02-13T05:27:11.388Z,18.83
2018-02-13T05:29:39.658Z,15.67
2018-02-13T05:32:07.874Z,18.87
2018-02-13T05:34:36.110Z,18.27
2018-02-13T05:37:04.354Z,15.40
2018-02-13T05:39:32.568Z,17.57
2018-02-13T05:42:00.814Z,18.83
2018-02-13T05:44:29.813Z,22.17
2018-02-13T05:46:58.898Z,19.63
2018-02-13T05:49:27.120Z,20.70
2018-02-13T05:51:55.397Z,19.57
2018-02-13T05:54:23.632Z,17.60
2018-02-13T05:56:52.636Z,18.30
2018-02-13T05:59:21.624Z,20.30
2018-02-13T06:01:50.630Z,17.37
2018-02-13T06:04:18.917Z,16.13
2018-02-13T06:06:47.193Z,20.47
2018-02-13T06:09:15.466Z,18.33
2018-02-13T06:11:43.704Z,19.60
2018-02-13T06:14:12.727Z,17.53
2018-02-13T06:16:40.973Z,21.33
2018-02-13T06:19:09.286Z,16.03
2018-02-13T06:21:37.562Z,23.90
2018-02-13T06:24:05.772Z,15.27
2018-02-13T06:26:34.011Z,22.17
2018-02-13T06:29:02.287Z,19.23
2018-02-13T06:31:30.563Z,20.93
2018-02-13T06:33:58.793Z,19.83
2018-02-13T06:36:27.039Z,20.63
2018-02-13T06:38:55.392Z,21.67
2018-02-13T06:41:23.641Z,17.20
2018-02-13T06:43:51.910Z,22.03
2018-02-13T06:46:20.099Z,25.70
2018-02-13T06:48:49.182Z,20.17
2018-02-13T06:51:17.374Z,21.13
2018-02-13T06:53:46.402Z,20.90
2018-02-13T06:56:14.630Z,18.83
2018-02-13T06:58:42.856Z,20.80
2018-02-13T07:01:11.109Z,21.13
2018-02-13T07:03:39.337Z,26.30
2018-02-13T07:06:07.557Z,29.27
2018-02-13T07:08:35.841Z,24.43
2018-02-13T07:11:04.094Z,22.13
2018-02-13T07:13:33.112Z,18.13
2018-02-13T07:16:02.086Z,23.13
2018-02-13T07:18:31.108Z,19.07
2018-02-13T07:20:59.367Z,19.10
2018-02-13T07:23:27.602Z,24.93
2018-02-13T07:25:55.890Z,21.87
2018-02-13T07:28:24.122Z,27.50
2018-02-13T07:30:52.488Z,22.90
2018-02-13T07:33:20.721Z,29.07
2018-02-13T07:35:48.981Z,24.23
2018-02-13T07:38:17.235Z,20.97
2018-02-13T07:40:45.464Z,29.50
2018-02-13T07:43:14.497Z,23.17
2018-02-13T07:45:42.755Z,22.53
2018-02-13T07:48:10.981Z,22.80
2018-02-13T07:50:39.226Z,23.13
2018-02-13T07:53:07.472Z,23.63
2018-02-13T07:55:36.500Z,23.83
2018-02-13T07:58:04.722Z,23.93
2018-02-13T08:00:32.960Z,24.90
2018-02-13T08:03:01.204Z,25.77
2018-02-13T08:05:29.490Z,25.27
2018-02-13T08:07:57.749Z,22.77
2018-02-13T08:10:26.029Z,22.47
2018-02-13T08:12:55.027Z,26.43
2018-02-13T08:15:23.272Z,28.47
2018-02-13T08:17:52.261Z,25.63
2018-02-13T08:20:20.584Z,23.77
2018-02-13T08:22:48.855Z,28.03
2018-02-13T08:25:17.162Z,25.20
2018-02-13T08:27:45.405Z,26.00
2018-02-13T08:30:13.691Z,25.07
2018-02-13T08:32:42.018Z,27.40
2018-02-13T08:35:10.237Z,28.27
2018-02-13T08:37:38.537Z,24.93
2018-02-13T08:40:06.793Z,22.60
2018-02-13T08:42:35.085Z,24.47
2018-02-13T08:45:03.334Z,27.40
2018-02-13T08:47:32.341Z,25.03
2018-02-13T08:50:00.592Z,26.70
2018-02-13T08:52:29.714Z,24.97
2018-02-13T08:54:57.932Z,24.37
2018-02-13T08:57:26.199Z,28.13
2018-02-13T08:59:54.474Z,26.17
2018-02-13T09:02:22.703Z,27.00
2018-02-13T09:04:51.807Z,26.97
2018-02-13T09:07:20.040Z,26.07
2018-02-13T09:09:48.262Z,25.07
2018-02-13T09:12:16.568Z,25.10
2018-02-13T09:14:44.934Z,24.43
2018-02-13T09:17:13.104Z,28.93
2018-02-13T09:19:41.392Z,25.93
2018-02-13T09:22:09.614Z,23.07
2018-02-13T09:24:38.636Z,23.27
2018-02-13T09:27:06.877Z,25.10
2018-02-13T09:29:35.199Z,23.53
2018-02-13T09:32:03.436Z,28.70
2018-02-13T09:34:31.686Z,19.87
2018-02-13T09:36:59.980Z,25.23
2018-02-13T09:39:28.213Z,27.37
2018-02-13T09:41:56.477Z,22.50
2018-02-13T09:44:24.744Z,26.73
2018-02-13T09:46:53.033Z,22.20
2018-02-13T09:49:21.256Z,24.17
2018-02-13T09:51:49.595Z,23.20
2018-02-13T09:54:17.861Z,23.20
2018-02-13T09:56:46.154Z,22.70
2018-02-13T09:59:14.430Z,23.73
2018-02-13T10:01:42.684Z,23.03
2018-02-13T10:04:10.965Z,21.87
2018-02-13T10:06:39.225Z,21.97
2018-02-13T10:09:08.403Z,22.77
2018-02-13T10:11:36.653Z,24.17
2018-02-13T10:14:05.339Z,29.47
2018-02-13T10:16:33.638Z,24.93
2018-02-13T10:19:01.852Z,29.73
2018-02-13T10:21:30.105Z,25.93
2018-02-13T10:23:59.098Z,25.73
2018-02-13T10:26:28.129Z,20.80
2018-02-13T10:28:56.390Z,127.05
2018-02-13T10:31:24.629Z,136.83
2018-02-13T10:33:52.932Z,29.73
2018-02-13T10:36:21.232Z,24.13
2018-02-13T10:38:49.472Z,25.73
2018-02-13T10:41:18.597Z,26.47
2018-02-13T10:43:46.825Z,21.43
2018-02-13T10:46:15.861Z,28.67
2018-02-13T10:48:44.081Z,36.03
2018-02-13T10:51:12.379Z,23.60
2018-02-13T10:53:40.597Z,26.43
2018-02-13T10:56:08.836Z,20.83
2018-02-13T10:58:37.105Z,25.00
2018-02-13T11:01:11.097Z,23.77
2018-02-13T11:03:39.355Z,23.77
2018-02-13T11:06:07.597Z,19.87
2018-02-13T11:08:36.629Z,20.63
2018-02-13T11:11:04.982Z,18.50
2018-02-13T11:13:33.236Z,22.07
2018-02-13T11:16:01.540Z,22.50
2018-02-13T11:18:29.768Z,20.50
2018-02-13T11:20:58.004Z,20.50
2018-02-13T11:23:26.236Z,22.70
2018-02-13T11:25:55.274Z,22.20
2018-02-13T11:28:23.498Z,18.57
2018-02-13T11:30:52.600Z,18.20
2018-02-13T11:33:21.618Z,19.43
2018-02-13T11:35:49.954Z,17.53
2018-02-13T11:38:18.197Z,16.83
2018-02-13T11:40:46.480Z,19.17
2018-02-13T11:43:14.697Z,17.83
2018-02-13T11:45:43.713Z,30.20
2018-02-13T11:48:12.093Z,68.67
2018-02-13T11:50:40.376Z,29.30
2018-02-13T11:53:08.696Z,17.43
2018-02-13T11:55:36.922Z,17.60
2018-02-13T11:58:05.193Z,17.17
2018-02-13T12:00:33.414Z,14.80
2018-02-13T12:03:01.651Z,15.57
2018-02-13T12:05:29.881Z,12.63
2018-02-13T12:07:58.169Z,16.97
2018-02-13T12:10:26.401Z,19.70
2018-02-13T12:12:54.625Z,18.70
2018-02-13T12:15:22.940Z,15.87
2018-02-13T12:17:51.185Z,20.57
2018-02-13T12:20:20.189Z,15.80
2018-02-13T12:22:49.208Z,13.50
2018-02-13T12:28:19.219Z,13.20
2018-02-13T12:30:48.348Z,15.63
2018-02-13T12:33:16.562Z,14.67
2018-02-13T12:35:44.851Z,14.40
2018-02-13T12:38:13.155Z,14.07
2018-02-13T12:40:41.405Z,15.90
2018-02-13T12:43:09.649Z,12.30
2018-02-13T12:45:37.887Z,17.37
2018-02-13T12:48:06.123Z,19.40
2018-02-13T12:50:34.361Z,17.63
2018-02-13T12:53:02.580Z,18.63
2018-02-13T12:55:30.900Z,15.23
2018-02-13T12:57:59.116Z,18.80
2018-02-13T13:00:27.369Z,12.87
2018-02-13T13:02:55.589Z,14.70
2018-02-13T13:05:23.817Z,19.10
2018-02-13T13:07:52.077Z,20.37
2018-02-13T13:10:20.316Z,16.77
2018-02-13T13:12:48.630Z,19.70
2018-02-13T13:15:16.907Z,19.37
2018-02-13T13:17:45.093Z,17.87
2018-02-13T13:20:13.358Z,53.77
2018-02-13T13:22:41.643Z,42.60
2018-02-13T13:25:09.910Z,16.70
2018-02-13T13:27:38.145Z,19.50
2018-02-13T13:30:06.359Z,21.90
2018-02-13T13:32:34.634Z,15.57
2018-02-13T13:35:02.852Z,19.93
2018-02-13T13:37:31.080Z,10.63
2018-02-13T13:39:59.330Z,12.90
2018-02-13T13:42:27.564Z,17.53
2018-02-13T13:44:55.800Z,18.67
2018-02-13T13:47:24.075Z,12.70
2018-02-13T13:49:53.055Z,22.03
2018-02-13T13:52:22.080Z,30.17
2018-02-13T13:54:50.309Z,21.73
2018-02-13T13:57:20.074Z,12.70
2018-02-13T13:59:48.357Z,14.97
2018-02-13T14:02:16.562Z,17.77
2018-02-13T14:04:44.804Z,18.20
2018-02-13T14:07:13.026Z,18.27
2018-02-13T14:09:41.406Z,16.07
2018-02-13T14:12:09.641Z,16.83
2018-02-13T14:14:37.881Z,20.73
2018-02-13T14:17:16.765Z,20.87
2018-02-13T14:19:44.990Z,18.33
2018-02-13T14:22:14.014Z,17.03
2018-02-13T14:24:42.294Z,16.53
2018-02-13T14:27:10.554Z,23.13
2018-02-13T14:29:38.885Z,18.87
2018-02-13T14:32:07.131Z,12.87
2018-02-13T14:34:35.350Z,16.10
2018-02-13T14:37:04.379Z,16.43
2018-02-13T14:39:32.620Z,16.77
2018-02-13T14:42:00.857Z,13.43
2018-02-13T14:44:29.107Z,14.30
2018-02-13T14:46:57.393Z,13.10
2018-02-13T14:49:25.606Z,17.33
2018-02-13T14:51:53.827Z,13.43
2018-02-13T14:54:22.096Z,10.47
2018-02-13T14:56:51.089Z,11.60
2018-02-13T14:59:20.197Z,12.80
2018-02-13T15:01:48.475Z,14.50
2018-02-13T15:04:16.727Z,10.50
2018-02-13T15:06:45.707Z,20.20
2018-02-13T15:09:13.949Z,9.10
2018-02-13T15:11:42.193Z,17.40
2018-02-13T15:14:11.187Z,17.57
2018-02-13T15:16:40.824Z,9.80
2018-02-13T15:19:09.042Z,11.87
2018-02-13T15:21:37.345Z,12.43
2018-02-13T15:24:05.599Z,15.77
2018-02-13T15:26:34.591Z,15.90
2018-02-13T15:29:03.613Z,18.37
2018-02-13T15:31:31.836Z,15.80
2018-02-13T15:34:00.163Z,14.13
2018-02-13T15:36:28.412Z,16.27
2018-02-13T15:38:57.499Z,21.37
2018-02-13T15:41:25.716Z,73.60
2018-02-13T15:43:53.959Z,32.30
2018-02-13T15:46:22.986Z,18.57
2018-02-13T15:48:51.215Z,11.40
2018-02-13T15:51:19.449Z,13.87
2018-02-13T15:53:47.677Z,13.87
2018-02-13T15:56:16.727Z,17.47
2018-02-13T15:58:44.957Z,13.17
2018-02-13T16:01:13.984Z,16.13
2018-02-13T16:03:42.203Z,16.80
2018-02-13T16:06:11.209Z,19.00
2018-02-13T16:08:40.245Z,15.33
2018-02-13T16:11:08.485Z,14.87
2018-02-13T16:13:37.620Z,18.10
2018-02-13T16:16:05.857Z,15.20
2018-02-13T16:18:34.906Z,16.57
2018-02-13T16:21:03.202Z,22.17
2018-02-13T16:23:31.445Z,17.00
2018-02-13T16:25:59.680Z,19.60
2018-02-13T16:28:28.689Z,15.40
2018-02-13T16:30:56.906Z,12.40
2018-02-13T16:33:25.146Z,13.93
2018-02-13T16:35:53.396Z,15.60
2018-02-13T16:38:21.623Z,15.27
2018-02-13T16:40:49.889Z,19.03
2018-02-13T16:43:18.940Z,17.07
2018-02-13T16:45:47.158Z,20.37
2018-02-13T16:48:15.378Z,15.40
2018-02-13T16:50:43.706Z,17.60
2018-02-13T16:53:11.976Z,18.80
2018-02-13T16:55:40.229Z,19.07
2018-02-13T16:58:08.447Z,18.47
2018-02-13T17:00:36.689Z,16.47
2018-02-13T17:03:05.668Z,16.70
2018-02-13T17:05:34.734Z,26.70
2018-02-13T17:08:03.660Z,19.43
2018-02-13T17:10:32.687Z,20.17
2018-02-13T17:13:01.041Z,13.33
2018-02-13T17:15:29.228Z,19.23
2018-02-13T17:17:57.478Z,17.27
2018-02-13T17:20:26.475Z,14.97
2018-02-13T17:22:54.781Z,17.80
2018-02-13T17:25:23.059Z,12.07
2018-02-13T17:27:51.330Z,17.17
2018-02-13T17:30:19.569Z,17.73
2018-02-13T17:32:47.888Z,14.13
2018-02-13T17:35:16.164Z,20.73
2018-02-13T17:37:44.414Z,16.77
2018-02-13T17:40:13.399Z,21.27
2018-02-13T17:42:42.436Z,26.40
2018-02-13T17:45:10.672Z,14.97
2018-02-13T17:47:38.978Z,21.17
2018-02-13T17:50:07.233Z,21.30
2018-02-13T17:52:36.227Z,12.97
2018-02-13T17:55:05.239Z,17.03
2018-02-13T17:57:33.478Z,17.53
2018-02-13T18:00:01.734Z,17.63
2018-02-13T18:02:29.966Z,20.43
2018-02-13T18:04:58.185Z,21.30
2018-02-13T18:07:26.421Z,15.87
2018-02-13T18:09:54.665Z,20.37
2018-02-13T18:12:22.885Z,23.07
2018-02-13T18:14:51.150Z,20.40
2018-02-13T18:17:19.377Z,16.27
2018-02-13T18:19:47.632Z,16.70
2018-02-13T18:22:15.977Z,20.37
2018-02-13T18:24:44.249Z,19.53
2018-02-13T18:27:12.531Z,15.73
2018-02-13T18:29:40.789Z,27.17
2018-02-13T18:32:09.776Z,18.33
2018-02-13T18:34:38.772Z,18.97
2018-02-13T18:37:07.762Z,21.13
2018-02-13T18:39:36.890Z,25.00
2018-02-13T18:42:05.234Z,22.07
2018-02-13T18:44:34.277Z,17.50
2018-02-13T18:47:02.537Z,23.03
2018-02-13T18:49:30.921Z,18.23
2018-02-13T18:51:59.162Z,25.50
2018-02-13T18:54:28.143Z,18.17
2018-02-13T18:56:56.362Z,21.70
2018-02-13T18:59:24.633Z,24.57
2018-02-13T19:01:52.842Z,21.70
2018-02-13T19:04:21.097Z,26.43
2018-02-13T19:06:49.327Z,25.23
2018-02-13T19:09:17.582Z,25.73
2018-02-13T19:11:45.855Z,26.10
2018-02-13T19:14:14.191Z,21.60
2018-02-13T19:19:10.640Z,22.83
2018-02-13T19:21:38.885Z,25.03
2018-02-13T19:24:07.886Z,23.37
2018-02-13T19:26:36.900Z,20.10
2018-02-13T19:29:05.223Z,22.93
2018-02-13T19:31:33.446Z,20.90
2018-02-13T19:34:01.708Z,19.27
2018-02-13T19:36:30.742Z,21.87
2018-02-13T19:38:59.020Z,18.93
2018-02-13T19:41:27.308Z,17.67
2018-02-13T19:43:55.510Z,22.37
2018-02-13T19:46:23.786Z,19.27
2018-02-13T19:48:52.007Z,21.43
2018-02-13T19:51:20.262Z,20.17
2018-02-13T19:53:49.261Z,18.60
2018-02-13T19:56:18.243Z,21.97
2018-02-13T19:58:46.585Z,22.80
2018-02-13T20:01:14.808Z,18.43
2018-02-13T20:03:43.932Z,17.40
2018-02-13T20:06:12.175Z,17.20
2018-02-13T20:08:40.410Z,16.10
2018-02-13T20:11:08.670Z,21.50
2018-02-13T20:13:36.909Z,16.30
2018-02-13T20:16:05.966Z,20.20
2018-02-13T20:18:34.306Z,16.60
2018-02-13T20:21:02.517Z,14.60
2018-02-13T20:23:30.760Z,20.77
2018-02-13T20:25:59.026Z,16.37
2018-02-13T20:28:27.234Z,15.07
2018-02-13T20:30:55.467Z,17.27
2018-02-13T20:33:23.732Z,18.10
2018-02-13T20:35:52.789Z,15.90
2018-02-13T20:38:21.124Z,17.80
2018-02-13T20:40:49.351Z,19.77
2018-02-13T20:43:17.605Z,20.67
2018-02-13T20:45:45.821Z,18.07
2018-02-13T20:48:14.208Z,17.77
2018-02-13T20:50:42.439Z,20.40
2018-02-13T20:53:10.652Z,18.10
2018-02-13T20:55:39.682Z,14.60
2018-02-13T20:58:07.970Z,14.70
2018-02-13T21:00:36.245Z,17.37
2018-02-13T21:03:05.237Z,13.20
2018-02-13T21:05:33.474Z,15.87
2018-02-13T21:08:02.506Z,17.77
2018-02-13T21:10:30.764Z,15.97
2018-02-13T21:12:59.772Z,21.73
2018-02-13T21:15:28.032Z,18.50
2018-02-13T21:17:56.291Z,17.50
2018-02-13T21:20:25.300Z,17.30
2018-02-13T21:22:54.408Z,18.70
2018-02-13T21:25:22.705Z,16.07
2018-02-13T21:27:50.959Z,17.10
2018-02-13T21:30:19.229Z,20.30
2018-02-13T21:32:47.483Z,21.53
2018-02-13T21:35:15.825Z,15.07
2018-02-13T21:37:44.092Z,16.87
2018-02-13T21:40:12.321Z,16.93
2018-02-13T21:42:41.329Z,17.97
2018-02-13T21:45:09.584Z,15.90
2018-02-13T21:47:37.895Z,13.37
2018-02-13T21:50:06.184Z,18.90
2018-02-13T21:52:34.434Z,12.40
2018-02-13T21:55:02.827Z,16.03
2018-02-13T21:57:31.108Z,14.33
2018-02-13T21:59:59.370Z,15.93
2018-02-13T22:02:27.666Z,17.10
2018-02-13T22:04:55.939Z,16.90
2018-02-13T22:07:24.172Z,15.33
2018-02-13T22:09:52.482Z,15.33
2018-02-13T22:12:20.694Z,16.60
2018-02-13T22:14:48.925Z,12.97
2018-02-13T22:17:17.180Z,16.93
2018-02-13T22:19:46.164Z,14.03
2018-02-13T22:22:14.421Z,14.67
2018-02-13T22:24:42.673Z,14.67
2018-02-13T22:27:10.969Z,18.53
2018-02-13T22:29:39.314Z,17.67
2018-02-13T22:32:07.539Z,16.77
2018-02-13T22:34:35.848Z,15.97
2018-02-13T22:37:04.856Z,14.80
2018-02-13T22:39:33.832Z,14.57
2018-02-13T22:42:02.841Z,15.20
2018-02-13T22:44:31.120Z,15.87
2018-02-13T22:46:59.348Z,14.30
2018-02-13T22:49:27.635Z,11.47
2018-02-13T22:51:55.948Z,12.30
2018-02-13T22:54:24.276Z,13.03
2018-02-13T22:56:52.520Z,13.43
2018-02-13T22:59:20.778Z,13.53
2018-02-13T23:01:48.999Z,13.90
2018-02-13T23:04:17.329Z,13.70
2018-02-13T23:06:45.554Z,13.33
2018-02-13T23:09:13.774Z,12.90
2018-02-13T23:11:42.846Z,9.83
2018-02-13T23:14:11.031Z,14.40
2018-02-13T23:16:40.035Z,11.63
2018-02-13T23:19:09.017Z,12.70
2018-02-13T23:21:38.056Z,14.10
2018-02-13T23:24:06.284Z,17.00
2018-02-13T23:26:35.273Z,13.17
2018-02-13T23:29:03.521Z,13.70
2018-02-13T23:31:31.732Z,11.50
2018-02-13T23:34:00.771Z,11.13
2018-02-13T23:36:29.032Z,13.13
2018-02-13T23:38:57.957Z,10.30
2018-02-13T23:41:26.173Z,15.33
2018-02-13T23:43:55.182Z,13.53
2018-02-13T23:46:23.481Z,11.17
2018-02-13T23:48:51.730Z,13.83
2018-02-13T23:51:20.721Z,16.47
2018-02-13T23:53:49.710Z,13.23
2018-02-13T23:56:18.825Z,12.97
2018-02-13T23:58:47.058Z,15.07
